Time;durP1;ratioP1;P1;durP2;ratioP2;P2;SDS_P1;SDS_P2;PMS_P1;PMS_P2;Temp;Humidity;BMP_temperature;BMP_pressure;BME280_temperature;BME280_humidity;BME280_pressure;Samples;Min_cycle;Max_cycle;Signal;HPM_P1;HPM_P2
2024/01/20 00:01:31;;;;;;;1.90;1.80;;;-2.80;98.20;;;;;;4941809;28;20553;-75
2024/01/20 00:03:58;;;;;;;1.90;1.80;;;-2.80;98.20;;;;;;4956796;28;20582;-77
2024/01/20 00:06:26;;;;;;;2.10;2.00;;;-2.80;98.20;;;;;;4939891;28;20485;-75
2024/01/20 00:08:55;;;;;;;1.90;1.80;;;-2.80;98.20;;;;;;4952576;28;20492;-75
2024/01/20 00:11:22;;;;;;;1.90;1.80;;;-2.80;98.20;;;;;;4937209;28;20964;-75
2024/01/20 00:13:49;;;;;;;2.00;1.90;;;-2.80;98.20;;;;;;4957835;28;20493;-75
2024/01/20 00:16:15;;;;;;;2.43;2.23;;;-2.80;98.20;;;;;;4933455;28;20514;-75
2024/01/20 00:18:42;;;;;;;2.97;2.77;;;-2.70;98.20;;;;;;4940462;28;20539;-78
2024/01/20 00:21:09;;;;;;;1.90;1.80;;;-2.80;98.20;;;;;;4936569;28;20984;-79
2024/01/20 00:23:38;;;;;;;1.90;1.80;;;-2.70;98.20;;;;;;4958942;28;20474;-77
2024/01/20 00:26:05;;;;;;;1.80;1.70;;;-2.80;98.20;;;;;;4917438;28;20978;-77
2024/01/20 00:28:31;;;;;;;2.20;2.10;;;-2.80;98.20;;;;;;4952457;28;20936;-79
2024/01/20 00:30:58;;;;;;;1.87;1.77;;;-2.80;98.20;;;;;;4942495;28;20999;-76
2024/01/20 00:33:25;;;;;;;2.10;2.00;;;-2.80;98.20;;;;;;4956406;28;20484;-78
2024/01/20 00:35:52;;;;;;;1.90;1.80;;;-2.80;98.20;;;;;;4922358;28;20476;-78
2024/01/20 00:38:19;;;;;;;1.90;1.80;;;-2.80;98.20;;;;;;4954126;28;20491;-77
2024/01/20 00:40:48;;;;;;;1.90;1.80;;;-2.90;98.20;;;;;;4939022;28;21013;-76
2024/01/20 00:43:14;;;;;;;1.80;1.70;;;-2.90;98.20;;;;;;4960135;28;20940;-79
2024/01/20 00:45:41;;;;;;;1.80;1.70;;;-2.90;98.20;;;;;;4942011;28;20519;-77
2024/01/20 00:48:08;;;;;;;1.90;1.80;;;-2.90;98.20;;;;;;4947876;28;20833;-77
2024/01/20 00:50:35;;;;;;;1.90;1.80;;;-2.90;98.20;;;;;;4950754;28;20914;-77
2024/01/20 00:53:02;;;;;;;1.90;1.80;;;-2.90;98.20;;;;;;4946292;28;20557;-76
2024/01/20 00:55:29;;;;;;;1.90;1.80;;;-2.90;98.20;;;;;;4929829;28;20565;-77
2024/01/20 00:57:57;;;;;;;1.97;1.87;;;-2.90;98.20;;;;;;4946283;28;20549;-77
2024/01/20 01:00:24;;;;;;;2.00;1.90;;;-2.90;98.20;;;;;;4942781;28;20674;-76
2024/01/20 01:02:50;;;;;;;1.90;1.80;;;-2.90;98.20;;;;;;4947385;28;20486;-79
2024/01/20 01:05:17;;;;;;;1.90;1.80;;;-2.90;98.20;;;;;;4930266;28;20484;-77
2024/01/20 01:07:44;;;;;;;2.03;1.93;;;-2.90;98.20;;;;;;4950257;28;20997;-79
2024/01/20 01:10:11;;;;;;;1.90;1.80;;;-2.90;98.20;;;;;;4942510;28;20861;-77
2024/01/20 01:12:38;;;;;;;2.20;2.10;;;-2.90;98.20;;;;;;4952348;28;20485;-78
2024/01/20 01:15:06;;;;;;;1.90;1.80;;;-2.90;98.20;;;;;;4952038;28;20558;-79
2024/01/20 01:20:12;;;;;;;1.93;1.83;;;-2.90;98.20;;;;;;4950910;28;20708;-76
2024/01/20 01:22:39;;;;;;;1.90;1.80;;;-2.80;98.20;;;;;;4926651;28;20562;-77
2024/01/20 01:25:09;;;;;;;2.00;1.90;;;-2.80;98.20;;;;;;4960162;28;20686;-77
2024/01/20 01:27:35;;;;;;;1.90;1.80;;;-2.80;98.20;;;;;;4957095;28;20504;-76
2024/01/20 01:30:03;;;;;;;1.90;1.80;;;-2.80;98.20;;;;;;4953824;28;20462;-77
2024/01/20 01:32:31;;;;;;;2.00;1.90;;;-2.80;98.20;;;;;;4961075;28;20525;-77
2024/01/20 01:34:57;;;;;;;1.90;1.80;;;-2.80;98.20;;;;;;4960731;28;20853;-78
2024/01/20 01:37:24;;;;;;;1.90;1.80;;;-2.80;98.20;;;;;;4958092;28;21007;-77
2024/01/20 01:39:51;;;;;;;2.10;2.00;;;-2.80;98.20;;;;;;4953796;28;20499;-76
2024/01/20 01:42:18;;;;;;;2.10;2.00;;;-2.80;98.20;;;;;;4957741;28;20511;-78
2024/01/20 01:44:44;;;;;;;1.80;1.70;;;-2.80;98.20;;;;;;4959350;28;20833;-77
2024/01/20 01:47:11;;;;;;;1.90;1.80;;;-2.80;98.20;;;;;;4953419;28;20494;-76
2024/01/20 01:49:39;;;;;;;2.10;2.00;;;-2.80;98.20;;;;;;4959424;28;20949;-76
2024/01/20 01:52:07;;;;;;;1.90;1.80;;;-2.90;98.20;;;;;;4942072;28;20483;-76
2024/01/20 01:54:34;;;;;;;2.30;2.10;;;-2.90;98.20;;;;;;4953613;28;20466;-76
2024/01/20 01:57:02;;;;;;;2.00;1.90;;;-2.90;98.20;;;;;;4958220;28;20485;-76
2024/01/20 01:59:29;;;;;;;18.50;13.00;;;-2.90;98.20;;;;;;4959522;28;21008;-77
2024/01/20 02:01:56;;;;;;;1.90;1.80;;;-2.90;98.20;;;;;;4945895;28;20530;-79
2024/01/20 02:04:23;;;;;;;1.90;1.80;;;-2.90;98.20;;;;;;4956806;28;20458;-76
2024/01/20 02:06:51;;;;;;;2.00;1.90;;;-2.90;98.20;;;;;;4955673;28;20560;-77
2024/01/20 02:09:18;;;;;;;1.90;1.80;;;-2.90;98.20;;;;;;4956616;28;20491;-76
2024/01/20 02:14:21;;;;;;;1.90;1.80;;;-3.00;98.20;;;;;;4956701;28;20997;-76
2024/01/20 02:16:47;;;;;;;1.90;1.80;;;-3.00;98.20;;;;;;4957430;28;20491;-77
2024/01/20 02:19:14;;;;;;;1.90;1.80;;;-3.00;98.20;;;;;;4964252;28;20486;-77
2024/01/20 02:21:41;;;;;;;2.00;1.90;;;-3.00;98.20;;;;;;4956100;28;20482;-77
2024/01/20 02:24:11;;;;;;;1.90;1.80;;;-3.10;98.20;;;;;;4966212;28;20466;-77
2024/01/20 02:26:38;;;;;;;1.90;1.80;;;-3.10;98.20;;;;;;4957343;28;20502;-77
2024/01/20 02:29:05;;;;;;;2.03;1.93;;;-3.10;98.20;;;;;;4963206;28;20485;-77
2024/01/20 02:31:32;;;;;;;1.90;1.80;;;-3.10;98.20;;;;;;4953785;28;20493;-77
2024/01/20 02:34:00;;;;;;;2.00;1.90;;;-3.20;98.20;;;;;;4965355;28;20473;-76
2024/01/20 02:36:26;;;;;;;2.13;2.03;;;-3.20;98.20;;;;;;4956285;28;20838;-75
2024/01/20 02:38:53;;;;;;;1.90;1.80;;;-3.20;98.20;;;;;;4965274;28;20508;-77
2024/01/20 02:41:21;;;;;;;1.90;1.80;;;-3.20;98.20;;;;;;4951747;28;20485;-77
2024/01/20 02:43:48;;;;;;;1.90;1.80;;;-3.20;98.20;;;;;;4966931;28;20473;-75
2024/01/20 02:46:15;;;;;;;1.90;1.80;;;-3.20;98.20;;;;;;4953508;28;20500;-76
2024/01/20 02:48:41;;;;;;;2.37;2.20;;;-3.20;98.20;;;;;;4960836;28;20549;-75
2024/01/20 02:51:09;;;;;;;2.00;1.90;;;-3.30;98.20;;;;;;4958534;28;20852;-75
2024/01/20 02:53:35;;;;;;;1.90;1.80;;;-3.30;98.20;;;;;;4971149;28;20478;-74
2024/01/20 02:56:02;;;;;;;2.00;1.90;;;-3.30;98.20;;;;;;4960511;28;20465;-74
2024/01/20 02:58:30;;;;;;;1.90;1.80;;;-3.30;98.20;;;;;;4966345;28;20486;-75
2024/01/20 03:00:58;;;;;;;1.90;1.80;;;-3.30;98.20;;;;;;4960361;28;20468;-74
2024/01/20 03:03:25;;;;;;;2.00;1.90;;;-3.40;98.20;;;;;;4969899;28;20468;-75
2024/01/20 03:05:53;;;;;;;2.00;1.90;;;-3.40;98.20;;;;;;4953354;28;20560;-73
2024/01/20 03:08:20;;;;;;;2.00;1.90;;;-3.30;98.20;;;;;;4963982;28;20494;-75
2024/01/20 03:10:46;;;;;;;1.93;1.83;;;-3.30;98.20;;;;;;4966532;28;20476;-74
2024/01/20 03:13:13;;;;;;;1.90;1.80;;;-3.40;98.20;;;;;;4969560;28;20475;-76
2024/01/20 03:15:41;;;;;;;2.00;1.90;;;-3.40;98.20;;;;;;4967485;28;20461;-75
2024/01/20 03:18:10;;;;;;;1.90;1.80;;;-3.30;98.20;;;;;;4941522;28;20493;-75
2024/01/20 03:20:37;;;;;;;2.00;1.90;;;-3.30;98.20;;;;;;4965643;28;20565;-74
2024/01/20 03:23:04;;;;;;;1.90;1.80;;;-3.20;98.20;;;;;;4960434;28;20507;-75
2024/01/20 03:25:31;;;;;;;1.93;1.83;;;-3.20;98.20;;;;;;4967349;28;20466;-74
2024/01/20 03:27:58;;;;;;;2.00;1.90;;;-3.20;98.20;;;;;;4957329;28;20481;-74
2024/01/20 03:30:24;;;;;;;2.00;1.90;;;-3.20;98.20;;;;;;4965123;28;20550;-74
2024/01/20 03:32:53;;;;;;;2.10;2.00;;;-3.20;98.20;;;;;;4956508;28;20493;-74
2024/01/20 03:35:19;;;;;;;2.00;1.90;;;-3.20;98.20;;;;;;4966367;28;20466;-75
2024/01/20 03:37:49;;;;;;;1.90;1.80;;;-3.20;98.20;;;;;;4959549;28;20990;-75
2024/01/20 03:40:16;;;;;;;1.90;1.80;;;-3.20;98.20;;;;;;4965573;28;20468;-74
2024/01/20 03:42:42;;;;;;;1.90;1.80;;;-3.20;98.20;;;;;;4960647;28;21010;-74
2024/01/20 03:45:10;;;;;;;2.00;1.90;;;-3.20;98.20;;;;;;4966386;28;21007;-75
2024/01/20 03:47:36;;;;;;;2.00;1.90;;;-3.30;98.20;;;;;;4955822;28;20489;-73
2024/01/20 03:50:06;;;;;;;1.93;1.83;;;-3.30;98.20;;;;;;4964287;28;20538;-74
2024/01/20 03:52:33;;;;;;;1.90;1.80;;;-3.30;98.20;;;;;;4957028;28;20485;-75
2024/01/20 03:54:59;;;;;;;1.90;1.80;;;-3.40;98.20;;;;;;4968794;28;20470;-72
2024/01/20 03:57:26;;;;;;;2.00;1.90;;;-3.40;98.20;;;;;;4944302;28;20479;-74
2024/01/20 03:59:53;;;;;;;2.20;2.10;;;-3.40;98.20;;;;;;4960104;28;20490;-75
2024/01/20 04:02:20;;;;;;;2.00;1.90;;;-3.50;98.20;;;;;;4957450;28;20482;-75
2024/01/20 04:04:46;;;;;;;1.90;1.80;;;-3.50;98.20;;;;;;4965157;28;20493;-72
2024/01/20 04:07:15;;;;;;;2.10;2.00;;;-3.50;98.20;;;;;;4958345;28;20850;-75
2024/01/20 04:09:41;;;;;;;2.30;2.10;;;-3.50;98.20;;;;;;4963796;28;20493;-72
2024/01/20 04:12:08;;;;;;;1.90;1.80;;;-3.50;98.20;;;;;;4958326;28;20485;-75
2024/01/20 04:14:35;;;;;;;1.90;1.80;;;-3.50;98.20;;;;;;4961585;28;20563;-74
2024/01/20 04:17:02;;;;;;;2.07;1.97;;;-3.50;98.20;;;;;;4959853;28;20481;-74
2024/01/20 04:19:28;;;;;;;1.90;1.80;;;-3.60;98.20;;;;;;4962662;28;20497;-71
2024/01/20 04:21:55;;;;;;;2.10;2.00;;;-3.60;98.20;;;;;;4946389;28;20505;-74
2024/01/20 04:24:23;;;;;;;2.00;1.90;;;-3.60;98.20;;;;;;4953885;28;20469;-72
2024/01/20 04:26:50;;;;;;;2.00;1.90;;;-3.60;98.20;;;;;;4960092;28;20508;-75
2024/01/20 04:29:17;;;;;;;2.00;1.90;;;-3.70;98.20;;;;;;4955043;28;20838;-74
2024/01/20 04:31:43;;;;;;;2.10;2.00;;;-3.70;98.20;;;;;;4948618;28;20483;-74
2024/01/20 04:34:10;;;;;;;1.90;1.80;;;-3.80;98.20;;;;;;4961388;28;20471;-74
2024/01/20 04:36:37;;;;;;;2.00;1.90;;;-3.70;98.20;;;;;;4954536;28;20485;-74
2024/01/20 04:39:04;;;;;;;2.10;2.00;;;-3.70;98.20;;;;;;4966587;28;20637;-74
2024/01/20 04:41:32;;;;;;;2.10;2.00;;;-3.70;98.20;;;;;;4955181;28;20481;-73
2024/01/20 04:43:59;;;;;;;1.90;1.80;;;-3.70;98.20;;;;;;4964157;28;20469;-74
2024/01/20 04:46:25;;;;;;;2.00;1.90;;;-3.70;98.20;;;;;;4952704;28;20481;-74
2024/01/20 04:48:52;;;;;;;2.00;1.90;;;-3.80;98.20;;;;;;4964814;28;20501;-74
2024/01/20 04:51:19;;;;;;;2.20;2.00;;;-3.70;98.20;;;;;;4947215;28;20485;-75
2024/01/20 04:53:46;;;;;;;2.10;2.00;;;-3.70;98.20;;;;;;4953489;28;20504;-74
2024/01/20 04:56:13;;;;;;;2.10;2.00;;;-3.70;98.20;;;;;;4948208;28;20490;-74
2024/01/20 04:58:41;;;;;;;2.00;1.90;;;-3.70;98.20;;;;;;4959897;28;20934;-74
2024/01/20 05:01:07;;;;;;;2.10;2.00;;;-3.80;98.20;;;;;;4954242;28;20500;-75
2024/01/20 05:03:34;;;;;;;2.00;1.90;;;-3.80;98.20;;;;;;4962189;28;20470;-71
2024/01/20 05:06:01;;;;;;;2.00;1.90;;;-3.80;98.20;;;;;;4950770;28;20846;-72
2024/01/20 05:08:28;;;;;;;2.00;1.90;;;-3.80;98.20;;;;;;4964069;28;20997;-72
2024/01/20 05:10:54;;;;;;;1.93;1.83;;;-3.90;98.20;;;;;;4947638;28;20548;-74
2024/01/20 05:13:21;;;;;;;1.97;1.87;;;-4.00;98.20;;;;;;4964870;28;20474;-74
2024/01/20 05:15:49;;;;;;;1.90;1.80;;;-4.00;98.20;;;;;;4941990;28;20562;-74
2024/01/20 05:18:16;;;;;;;2.00;1.90;;;-4.00;98.20;;;;;;4965459;28;20486;-74
2024/01/20 05:20:43;;;;;;;2.33;2.13;;;-4.10;98.20;;;;;;4957515;28;20471;-74
2024/01/20 05:23:09;;;;;;;1.90;1.80;;;-4.10;98.20;;;;;;4956221;28;20486;-74
2024/01/20 05:25:36;;;;;;;1.90;1.80;;;-4.10;98.20;;;;;;4953858;28;20478;-75
2024/01/20 05:28:03;;;;;;;2.20;2.10;;;-4.10;98.20;;;;;;4953567;28;20488;-74
2024/01/20 05:30:30;;;;;;;2.67;2.47;;;-4.20;98.20;;;;;;4952500;28;20485;-74
2024/01/20 05:32:58;;;;;;;1.97;1.87;;;-4.20;98.20;;;;;;4956442;28;20570;-74
2024/01/20 05:35:25;;;;;;;2.00;1.90;;;-4.20;98.20;;;;;;4963261;28;20485;-73
2024/01/20 05:37:52;;;;;;;2.20;2.10;;;-4.30;98.20;;;;;;4958842;28;20483;-74
2024/01/20 05:40:18;;;;;;;1.90;1.80;;;-4.30;98.20;;;;;;4959041;28;20492;-74
2024/01/20 05:42:45;;;;;;;2.00;1.90;;;-4.30;98.20;;;;;;4959111;28;20539;-74
2024/01/20 05:45:14;;;;;;;2.00;1.90;;;-4.30;98.20;;;;;;4963473;28;20473;-74
2024/01/20 05:47:41;;;;;;;1.97;1.87;;;-4.40;98.20;;;;;;4954154;28;21175;-74
2024/01/20 05:50:09;;;;;;;2.00;1.90;;;-4.40;98.20;;;;;;4963815;28;20462;-74
2024/01/20 05:52:35;;;;;;;2.00;1.90;;;-4.40;98.20;;;;;;4957889;28;20584;-72
2024/01/20 05:55:02;;;;;;;2.00;1.90;;;-4.40;98.20;;;;;;4962565;28;20568;-74
2024/01/20 05:57:29;;;;;;;2.00;1.90;;;-4.40;98.20;;;;;;4954562;28;20809;-73
2024/01/20 05:59:55;;;;;;;2.00;1.90;;;-4.40;98.20;;;;;;4955300;28;20497;-73
2024/01/20 06:02:22;;;;;;;2.00;1.90;;;-4.40;98.20;;;;;;4954721;28;20481;-73
2024/01/20 06:04:49;;;;;;;2.00;1.90;;;-4.50;98.20;;;;;;4959217;28;20846;-73
2024/01/20 06:07:17;;;;;;;2.10;2.00;;;-4.50;98.20;;;;;;4954670;28;21048;-72
2024/01/20 06:09:44;;;;;;;2.10;2.00;;;-4.50;98.20;;;;;;4960859;28;20485;-72
2024/01/20 06:12:12;;;;;;;2.00;1.90;;;-4.50;98.20;;;;;;4959809;28;20478;-73
2024/01/20 06:14:39;;;;;;;2.10;2.00;;;-4.60;98.20;;;;;;4959679;28;21045;-73
2024/01/20 06:17:06;;;;;;;1.90;1.80;;;-4.60;98.20;;;;;;4950109;28;20532;-73
2024/01/20 06:19:32;;;;;;;1.97;1.87;;;-4.60;98.20;;;;;;4956477;28;20490;-73
2024/01/20 06:21:59;;;;;;;2.00;1.90;;;-4.70;98.20;;;;;;4958229;28;20484;-73
2024/01/20 06:24:27;;;;;;;2.00;1.90;;;-4.70;98.20;;;;;;4964734;28;20930;-75
2024/01/20 06:26:54;;;;;;;2.27;2.10;;;-4.70;98.20;;;;;;4954878;28;20478;-74
2024/01/20 06:29:21;;;;;;;2.00;1.90;;;-4.70;98.20;;;;;;4962044;28;20512;-73
2024/01/20 06:31:47;;;;;;;1.90;1.80;;;-4.70;98.20;;;;;;4962604;28;21215;-73
2024/01/20 06:34:14;;;;;;;2.00;1.90;;;-4.70;98.20;;;;;;4970542;28;20844;-74
2024/01/20 06:36:41;;;;;;;2.00;1.90;;;-4.80;98.20;;;;;;4959286;28;20482;-75
2024/01/20 06:39:07;;;;;;;2.00;1.90;;;-4.80;98.20;;;;;;4968766;28;20493;-75
2024/01/20 06:41:36;;;;;;;1.93;1.83;;;-4.80;98.20;;;;;;4959946;28;20484;-73
2024/01/20 06:44:03;;;;;;;2.00;1.90;;;-4.90;98.20;;;;;;4966668;28;20564;-75
2024/01/20 06:46:29;;;;;;;2.10;2.00;;;-4.90;98.20;;;;;;4955764;28;20477;-75
2024/01/20 06:48:56;;;;;;;4.43;4.10;;;-4.90;98.20;;;;;;4963684;28;20498;-75
2024/01/20 06:51:26;;;;;;;1.90;1.80;;;-4.90;98.20;;;;;;4938926;28;20478;-74
2024/01/20 06:53:57;;;;;;;2.00;1.90;;;-4.90;98.20;;;;;;4958812;28;20474;-74
2024/01/20 06:56:24;;;;;;;2.00;1.90;;;-4.90;98.20;;;;;;4939236;28;20488;-75
2024/01/20 06:58:52;;;;;;;2.00;1.90;;;-5.00;98.20;;;;;;4967501;28;20549;-73
2024/01/20 07:01:19;;;;;;;2.00;1.90;;;-5.00;98.20;;;;;;4958619;28;20975;-74
2024/01/20 07:03:45;;;;;;;2.00;1.90;;;-5.00;98.20;;;;;;4965094;28;20474;-73
2024/01/20 07:06:12;;;;;;;2.00;1.90;;;-5.00;98.20;;;;;;4953791;28;20488;-75
2024/01/20 07:08:39;;;;;;;2.00;1.90;;;-5.00;98.20;;;;;;4951652;28;20576;-75
2024/01/20 07:11:08;;;;;;;2.10;2.00;;;-5.00;98.20;;;;;;4953049;28;20494;-75
2024/01/20 07:13:35;;;;;;;2.13;2.00;;;-5.00;98.20;;;;;;4958203;28;20505;-75
2024/01/20 07:16:09;;;;;;;2.00;1.90;;;-5.00;98.20;;;;;;4957041;28;20470;-75
2024/01/20 07:18:36;;;;;;;2.10;2.00;;;-5.00;98.20;;;;;;4960258;28;20616;-75
2024/01/20 07:21:03;;;;;;;2.00;1.90;;;-5.00;98.20;;;;;;4957252;28;20461;-73
2024/01/20 07:23:30;;;;;;;2.00;1.90;;;-5.00;98.20;;;;;;4952703;28;20462;-75
2024/01/20 07:25:58;;;;;;;2.20;2.07;;;-5.10;98.20;;;;;;4951427;28;20973;-75
2024/01/20 07:28:24;;;;;;;2.10;2.00;;;-5.00;98.20;;;;;;4969695;28;21020;-75
2024/01/20 07:30:51;;;;;;;2.00;1.90;;;-5.10;98.20;;;;;;4954134;28;20457;-74
2024/01/20 07:33:19;;;;;;;2.10;2.00;;;-5.10;98.20;;;;;;4965031;28;20457;-75
2024/01/20 07:35:46;;;;;;;2.10;2.00;;;-5.10;98.20;;;;;;4963596;28;20470;-75
2024/01/20 07:38:13;;;;;;;2.00;1.90;;;-5.10;98.20;;;;;;4937879;28;20522;-75
2024/01/20 07:40:40;;;;;;;2.00;1.90;;;-5.10;98.20;;;;;;4952442;28;20470;-74
2024/01/20 07:43:07;;;;;;;2.03;1.93;;;-5.10;98.20;;;;;;4952916;28;20883;-75
2024/01/20 07:45:34;;;;;;;2.13;2.00;;;-5.10;98.20;;;;;;4963212;28;20552;-75
2024/01/20 07:48:01;;;;;;;2.10;2.00;;;-5.10;98.20;;;;;;4936028;28;20480;-72
2024/01/20 07:50:30;;;;;;;2.10;2.00;;;-5.10;98.20;;;;;;4961929;28;20470;-72
2024/01/20 07:52:57;;;;;;;2.10;2.00;;;-5.10;98.20;;;;;;4931172;28;21101;-72
2024/01/20 07:55:24;;;;;;;2.10;2.00;;;-5.10;98.20;;;;;;4964930;28;20473;-74
2024/01/20 07:57:50;;;;;;;2.10;2.00;;;-5.10;98.20;;;;;;4960209;28;20509;-72
2024/01/20 08:00:18;;;;;;;2.40;2.20;;;-5.10;98.20;;;;;;4968991;28;20477;-74
2024/01/20 08:02:45;;;;;;;2.10;2.00;;;-5.00;98.20;;;;;;4959906;28;20486;-74
2024/01/20 08:05:11;;;;;;;2.00;1.90;;;-5.00;98.20;;;;;;4969410;28;20470;-74
2024/01/20 08:07:40;;;;;;;2.10;2.00;;;-5.00;98.20;;;;;;4949278;28;20482;-75
2024/01/20 08:10:07;;;;;;;2.13;2.00;;;-4.90;98.20;;;;;;4954893;28;20471;-73
2024/01/20 08:12:34;;;;;;;2.10;2.00;;;-4.90;98.20;;;;;;4959396;28;20493;-72
2024/01/20 08:15:00;;;;;;;2.00;1.90;;;-4.80;98.20;;;;;;4964141;28;20466;-72
2024/01/20 08:17:27;;;;;;;2.20;2.00;;;-4.80;98.20;;;;;;4951483;28;20484;-72
2024/01/20 08:19:54;;;;;;;2.10;2.00;;;-4.70;98.20;;;;;;4965697;28;20509;-72
2024/01/20 08:22:21;;;;;;;2.00;1.90;;;-4.60;98.20;;;;;;4958914;28;20478;-73
2024/01/20 08:24:49;;;;;;;2.10;2.00;;;-4.50;98.20;;;;;;4957003;28;20546;-74
2024/01/20 08:27:16;;;;;;;1.97;1.87;;;-4.50;98.20;;;;;;4957857;28;20496;-73
2024/01/20 08:29:43;;;;;;;2.00;1.90;;;-4.40;98.20;;;;;;4964884;28;20501;-73
2024/01/20 08:32:10;;;;;;;2.30;2.10;;;-4.30;98.20;;;;;;4958632;28;20484;-73
2024/01/20 08:34:36;;;;;;;2.00;1.90;;;-4.20;98.20;;;;;;4966641;28;20493;-74
2024/01/20 08:37:03;;;;;;;2.53;2.33;;;-4.20;98.20;;;;;;4945784;28;20482;-73
2024/01/20 08:39:30;;;;;;;2.30;2.10;;;-4.10;98.20;;;;;;4955594;28;20490;-73
2024/01/20 08:41:58;;;;;;;1.90;1.80;;;-4.00;98.20;;;;;;4953342;28;20489;-73
2024/01/20 08:44:25;;;;;;;2.00;1.90;;;-4.00;98.20;;;;;;4961817;28;20466;-74
2024/01/20 08:46:52;;;;;;;2.00;1.90;;;-3.90;98.20;;;;;;4948437;28;20491;-74
2024/01/20 08:49:18;;;;;;;2.10;2.00;;;-3.80;98.20;;;;;;4966031;28;20500;-74
2024/01/20 08:51:45;;;;;;;2.10;2.00;;;-3.80;98.20;;;;;;4955168;28;20488;-72
2024/01/20 08:54:12;;;;;;;2.10;2.00;;;-3.70;98.20;;;;;;4961903;28;20462;-72
2024/01/20 08:56:39;;;;;;;2.30;2.10;;;-3.70;98.20;;;;;;4955376;28;20952;-72
2024/01/20 08:59:07;;;;;;;2.20;2.00;;;-3.60;98.20;;;;;;4966488;28;20478;-72
2024/01/20 09:01:34;;;;;;;2.10;2.00;;;-3.60;98.20;;;;;;4946704;28;20508;-75
2024/01/20 09:04:01;;;;;;;1.93;1.83;;;-3.50;98.20;;;;;;4960840;28;20493;-75
2024/01/20 09:06:28;;;;;;;2.00;1.90;;;-3.50;98.20;;;;;;4959146;28;20493;-72
2024/01/20 09:08:54;;;;;;;2.10;2.00;;;-3.50;98.20;;;;;;4955875;28;20493;-72
2024/01/20 09:11:21;;;;;;;1.93;1.83;;;-3.40;98.20;;;;;;4954339;28;20477;-73
2024/01/20 09:13:48;;;;;;;2.00;1.90;;;-3.40;98.20;;;;;;4950007;28;20474;-72
2024/01/20 09:16:17;;;;;;;2.00;1.90;;;-3.30;98.20;;;;;;4948430;28;20481;-72
2024/01/20 09:18:44;;;;;;;1.90;1.80;;;-3.20;98.20;;;;;;4957222;28;20597;-72
2024/01/20 09:21:11;;;;;;;1.97;1.87;;;-3.20;98.20;;;;;;4937408;29;20582;-72
2024/01/20 09:23:38;;;;;;;2.03;1.90;;;-3.10;98.20;;;;;;4960360;28;20467;-72
2024/01/20 09:26:05;;;;;;;2.00;1.90;;;-3.00;98.20;;;;;;4943435;28;20491;-72
2024/01/20 09:28:32;;;;;;;1.97;1.87;;;-3.00;98.20;;;;;;4959792;28;20495;-73
2024/01/20 09:31:03;;;;;;;1.90;1.80;;;-3.00;98.20;;;;;;4954520;28;20463;-73
2024/01/20 09:33:32;;;;;;;1.90;1.80;;;-2.90;98.20;;;;;;4958078;28;20518;-73
2024/01/20 09:35:59;;;;;;;1.97;1.87;;;-2.80;98.20;;;;;;4949262;28;20466;-73
2024/01/20 09:38:28;;;;;;;2.10;2.00;;;-2.70;98.20;;;;;;4962035;28;20483;-74
2024/01/20 09:40:56;;;;;;;2.10;2.00;;;-2.70;98.20;;;;;;4949335;28;20526;-73
2024/01/20 09:43:22;;;;;;;1.90;1.80;;;-2.60;98.20;;;;;;4968147;28;20469;-73
2024/01/20 09:45:50;;;;;;;1.90;1.80;;;-2.60;98.20;;;;;;4947597;28;20459;-73
2024/01/20 09:48:17;;;;;;;1.97;1.87;;;-2.60;98.20;;;;;;4969742;28;20477;-74
2024/01/20 09:50:45;;;;;;;1.90;1.80;;;-2.50;98.20;;;;;;4961193;28;20516;-75
2024/01/20 09:53:14;;;;;;;2.00;1.90;;;-2.50;98.20;;;;;;4928172;28;20479;-73
2024/01/20 09:55:42;;;;;;;3.80;3.60;;;-2.40;98.20;;;;;;4954715;28;20462;-73
2024/01/20 09:58:11;;;;;;;2.00;1.90;;;-2.30;98.20;;;;;;4952909;28;20722;-73
2024/01/20 10:00:39;;;;;;;1.90;1.80;;;-2.30;98.20;;;;;;4950230;28;20463;-73
2024/01/20 10:03:08;;;;;;;2.00;1.90;;;-2.20;98.20;;;;;;4940407;28;20835;-72
2024/01/20 10:05:35;;;;;;;1.90;1.80;;;-2.20;98.20;;;;;;4961221;28;20541;-72
2024/01/20 10:08:04;;;;;;;2.10;2.00;;;-2.10;98.20;;;;;;4955726;28;20976;-73
2024/01/20 10:10:32;;;;;;;2.00;1.90;;;-2.00;98.20;;;;;;4962940;28;20516;-72
2024/01/20 10:13:00;;;;;;;1.83;1.73;;;-2.00;98.20;;;;;;4953271;28;20479;-73
2024/01/20 10:15:30;;;;;;;1.90;1.80;;;-1.90;98.20;;;;;;4963612;28;20473;-73
2024/01/20 10:17:57;;;;;;;1.90;1.80;;;-1.90;98.20;;;;;;4947639;28;21018;-72
2024/01/20 10:20:25;;;;;;;1.90;1.80;;;-1.80;98.20;;;;;;4963797;28;20919;-73
2024/01/20 10:22:52;;;;;;;1.90;1.80;;;-1.80;98.20;;;;;;4936919;28;21034;-73
2024/01/20 10:25:20;;;;;;;2.00;1.90;;;-1.70;98.20;;;;;;4969407;28;20554;-73
2024/01/20 10:27:48;;;;;;;1.83;1.73;;;-1.60;98.20;;;;;;4952057;28;20520;-72
2024/01/20 10:30:17;;;;;;;1.80;1.70;;;-1.50;98.20;;;;;;4962973;28;20482;-73
2024/01/20 10:32:45;;;;;;;1.93;1.83;;;-1.50;98.20;;;;;;4953942;28;20486;-73
2024/01/20 10:35:12;;;;;;;1.80;1.70;;;-1.40;98.20;;;;;;4963263;28;20477;-73
2024/01/20 10:37:40;;;;;;;1.87;1.77;;;-1.30;98.20;;;;;;4950456;28;21066;-73
2024/01/20 10:40:11;;;;;;;1.80;1.70;;;-1.20;98.20;;;;;;4963701;28;20973;-74
2024/01/20 10:42:45;;;;;;;1.90;1.80;;;-1.10;98.20;;;;;;4954164;28;20489;-73
2024/01/20 10:45:16;;;;;;;1.80;1.70;;;-1.00;98.20;;;;;;4967481;28;20462;-74
2024/01/20 10:47:52;;;;;;;1.80;1.70;;;-1.00;98.20;;;;;;4941754;28;20878;-73
2024/01/20 10:50:26;;;;;;;1.90;1.80;;;-0.90;98.20;;;;;;4962817;28;20820;-74
2024/01/20 10:52:54;;;;;;;1.70;1.60;;;-0.80;98.20;;;;;;4958054;28;20478;-74
2024/01/20 10:55:21;;;;;;;10.70;10.10;;;-0.70;98.20;;;;;;4969885;28;20458;-75
2024/01/20 10:57:51;;;;;;;2.00;1.90;;;-0.70;98.20;;;;;;4936298;28;20495;-72
2024/01/20 11:00:19;;;;;;;1.80;1.70;;;-0.80;98.20;;;;;;4962834;28;20959;-76
2024/01/20 11:02:47;;;;;;;1.80;1.70;;;-0.80;98.20;;;;;;4942635;28;20549;-74
2024/01/20 11:05:22;;;;;;;1.90;1.80;;;-0.90;98.20;;;;;;4964483;28;20816;-75
2024/01/20 11:07:59;;;;;;;3.03;2.83;;;-0.90;98.20;;;;;;4955349;28;20497;-73
2024/01/20 11:10:26;;;;;;;1.70;1.60;;;-0.90;98.20;;;;;;4961076;28;21046;-73
2024/01/20 11:13:04;;;;;;;1.80;1.70;;;-0.80;98.20;;;;;;4942050;28;20493;-72
2024/01/20 11:15:31;;;;;;;1.80;1.70;;;-0.80;98.20;;;;;;4965497;28;20473;-73
2024/01/20 11:17:58;;;;;;;1.80;1.70;;;-0.80;98.20;;;;;;4935647;28;20981;-74
2024/01/20 11:20:26;;;;;;;1.80;1.70;;;-0.80;98.20;;;;;;4966499;28;20469;-76
2024/01/20 11:22:55;;;;;;;1.80;1.70;;;-0.80;98.20;;;;;;4952785;28;20492;-73
2024/01/20 11:25:22;;;;;;;1.90;1.80;;;-0.70;98.20;;;;;;4961441;28;20481;-74
2024/01/20 11:27:55;;;;;;;1.70;1.60;;;-0.60;98.20;;;;;;4956047;28;20537;-74
2024/01/20 11:30:30;;;;;;;1.70;1.60;;;-0.50;98.20;;;;;;4968626;28;20497;-74
2024/01/20 11:32:58;;;;;;;1.60;1.50;;;-0.40;98.20;;;;;;4958217;28;21029;-73
2024/01/20 11:35:26;;;;;;;1.70;1.60;;;-0.40;98.20;;;;;;4970939;28;21074;-74
2024/01/20 11:37:55;;;;;;;2.67;2.47;;;-0.40;98.20;;;;;;4949039;28;20482;-74
2024/01/20 11:40:22;;;;;;;2.93;2.73;;;-0.30;98.20;;;;;;4964568;28;20466;-74
2024/01/20 11:42:49;;;;;;;1.80;1.70;;;-0.30;98.20;;;;;;4956586;28;20525;-75
2024/01/20 11:45:17;;;;;;;1.70;1.60;;;-0.30;98.20;;;;;;4964891;28;20476;-77
2024/01/20 11:47:46;;;;;;;1.60;1.50;;;-0.20;98.20;;;;;;4956689;28;20595;-74
2024/01/20 11:50:12;;;;;;;1.67;1.57;;;-0.20;98.20;;;;;;4964535;28;20529;-71
2024/01/20 11:52:39;;;;;;;1.70;1.60;;;-0.20;98.20;;;;;;4954368;28;21059;-71
2024/01/20 11:55:07;;;;;;;1.70;1.60;;;-0.10;98.20;;;;;;4965027;28;20585;-73
2024/01/20 11:57:34;;;;;;;1.70;1.50;;;-0.10;98.20;;;;;;4954736;28;21018;-73
2024/01/20 12:00:03;;;;;;;1.80;1.70;;;-0.10;98.20;;;;;;4959212;28;20609;-75
2024/01/20 12:02:30;;;;;;;2.00;1.80;;;0.00;98.20;;;;;;4955742;28;20484;-75
2024/01/20 12:04:59;;;;;;;3.83;3.53;;;0.00;98.20;;;;;;4964125;28;20471;-77
2024/01/20 12:07:26;;;;;;;1.63;1.50;;;0.10;98.20;;;;;;4954447;28;20485;-75
2024/01/20 12:09:53;;;;;;;1.70;1.60;;;0.10;98.20;;;;;;4961904;28;20880;-75
2024/01/20 12:12:22;;;;;;;1.67;1.53;;;0.10;98.20;;;;;;4952228;28;20493;-75
2024/01/20 12:14:50;;;;;;;1.70;1.60;;;0.10;98.20;;;;;;4963599;28;20473;-75
2024/01/20 12:17:21;;;;;;;1.63;1.50;;;0.10;98.20;;;;;;4952283;28;20478;-74
2024/01/20 12:19:49;;;;;;;1.70;1.60;;;0.10;98.20;;;;;;4951942;28;21052;-76
2024/01/20 12:22:17;;;;;;;1.70;1.60;;;0.10;98.20;;;;;;4948400;28;20698;-77
2024/01/20 12:24:47;;;;;;;1.70;1.60;;;0.10;98.20;;;;;;4958392;28;20974;-75
2024/01/20 12:27:15;;;;;;;1.63;1.50;;;0.10;98.20;;;;;;4953704;28;20482;-75
2024/01/20 12:29:42;;;;;;;1.70;1.60;;;0.20;98.20;;;;;;4953086;28;20495;-76
2024/01/20 12:32:09;;;;;;;2.63;2.47;;;0.20;98.20;;;;;;4945748;28;21020;-74
2024/01/20 12:34:36;;;;;;;1.80;1.70;;;0.20;98.20;;;;;;4960789;28;20493;-75
2024/01/20 12:37:03;;;;;;;1.70;1.60;;;0.30;98.20;;;;;;4951116;28;20568;-76
2024/01/20 12:39:31;;;;;;;1.67;1.50;;;0.30;98.20;;;;;;4957935;28;20796;-74
2024/01/20 12:41:58;;;;;;;1.70;1.60;;;0.40;98.20;;;;;;4954044;28;20589;-75
2024/01/20 12:44:25;;;;;;;1.70;1.60;;;0.50;98.20;;;;;;4965267;28;20504;-76
2024/01/20 12:46:52;;;;;;;1.70;1.60;;;0.50;98.20;;;;;;4952075;28;20489;-76
2024/01/20 12:49:20;;;;;;;4.07;3.83;;;0.50;98.20;;;;;;4950798;28;20502;-75
2024/01/20 12:51:47;;;;;;;1.70;1.60;;;0.60;98.20;;;;;;4947328;28;20724;-75
2024/01/20 12:54:15;;;;;;;1.63;1.50;;;0.60;98.20;;;;;;4960929;28;20465;-74